Time,TemperatureF,DewpointF,PressureIn,WindDirection,WindDirectionDegrees,WindSpeedMPH,WindSpeedGustMPH,Humidity,HourlyPrecipIn,Conditions,Clouds,dailyrainin,SoftwareType,DateUTC
2013-02-18 00:02:00,29.0,8.0,30.28,WSW,258,0.0,-999.0,40,-99.99,,,-99.99,,2013-02-18 05:02:00,
2013-02-18 00:11:00,29.0,8.0,30.28,WSW,258,0.0,-999.0,40,-99.99,,,-99.99,,2013-02-18 05:11:00,
2013-02-18 00:21:00,28.0,7.0,30.28,WNW,286,0.0,-999.0,40,-99.99,,,-99.99,,2013-02-18 05:21:00,
2013-02-18 00:32:00,29.0,8.0,30.29,WNW,288,0.0,-999.0,40,-99.99,,,-99.99,,2013-02-18 05:32:00,
2013-02-18 00:42:00,29.0,8.0,30.29,WNW,288,0.0,-999.0,40,-99.99,,,-99.99,,2013-02-18 05:42:00,
2013-02-18 00:52:00,28.0,6.0,30.30,WNW,288,0.0,-999.0,39,-99.99,,,-99.99,,2013-02-18 05:52:00,
2013-02-18 01:02:00,28.0,7.0,30.29,WNW,288,0.0,-999.0,40,-99.99,,,-99.99,,2013-02-18 06:02:00,
2013-02-18 01:11:00,28.0,7.0,30.29,WNW,288,0.0,-999.0,40,-99.99,,,-99.99,,2013-02-18 06:11:00,
2013-02-18 01:22:00,28.0,7.0,30.30,WNW,288,0.0,-999.0,41,-99.99,,,-99.99,,2013-02-18 06:22:00,
2013-02-18 01:32:00,28.0,7.0,30.30,WNW,288,0.0,-999.0,41,-99.99,,,-99.99,,2013-02-18 06:32:00,
2013-02-18 01:42:00,28.0,8.0,30.31,WNW,288,0.0,-999.0,42,-99.99,,,-99.99,,2013-02-18 06:42:00,
2013-02-18 01:52:00,28.0,8.0,30.31,WNW,288,0.0,-999.0,42,-99.99,,,-99.99,,2013-02-18 06:52:00,
2013-02-18 02:01:00,28.0,7.0,30.32,WNW,288,0.0,-999.0,40,-99.99,,,-99.99,,2013-02-18 07:01:00,
2013-02-18 02:11:00,28.0,7.0,30.32,WNW,288,0.0,-999.0,40,-99.99,,,-99.99,,2013-02-18 07:11:00,
2013-02-18 02:22:00,28.0,8.0,30.32,WNW,288,0.0,-999.0,42,-99.99,,,-99.99,,2013-02-18 07:22:00,
2013-02-18 02:32:00,28.0,8.0,30.32,WNW,288,0.0,-999.0,42,-99.99,,,-99.99,,2013-02-18 07:32:00,
2013-02-18 02:42:00,28.0,8.0,30.32,WNW,288,0.0,-999.0,42,-99.99,,,-99.99,,2013-02-18 07:42:00,
2013-02-18 02:52:00,28.0,9.0,30.32,WNW,288,0.0,-999.0,44,-99.99,,,-99.99,,2013-02-18 07:52:00,
2013-02-18 03:01:00,27.0,8.0,30.33,WNW,288,0.0,-999.0,43,-99.99,,,-99.99,,2013-02-18 08:01:00,
2013-02-18 03:11:00,27.0,8.0,30.33,WNW,288,0.0,-999.0,43,-99.99,,,-99.99,,2013-02-18 08:11:00,
2013-02-18 03:21:00,26.0,6.0,30.33,WNW,288,0.0,-999.0,42,-99.99,,,-99.99,,2013-02-18 08:21:00,
2013-02-18 03:33:00,26.0,7.0,30.33,WNW,288,0.0,-999.0,44,-99.99,,,-99.99,,2013-02-18 08:33:00,
2013-02-18 03:42:00,26.0,7.0,30.33,WNW,288,0.0,-999.0,44,-99.99,,,-99.99,,2013-02-18 08:42:00,
2013-02-18 03:52:00,26.0,7.0,30.33,WNW,288,0.0,-999.0,44,-99.99,,,-99.99,,2013-02-18 08:52:00,
2013-02-18 04:03:00,26.0,8.0,30.34,WNW,288,0.0,-999.0,46,-99.99,,,-99.99,,2013-02-18 09:03:00,
2013-02-18 04:11:00,26.0,8.0,30.34,WNW,288,0.0,-999.0,46,-99.99,,,-99.99,,2013-02-18 09:11:00,
2013-02-18 04:22:00,25.0,7.0,30.34,WNW,288,0.0,-999.0,45,-99.99,,,-99.99,,2013-02-18 09:22:00,
2013-02-18 04:32:00,25.0,7.0,30.34,WNW,288,0.0,-999.0,46,-99.99,,,-99.99,,2013-02-18 09:32:00,
2013-02-18 04:42:00,25.0,7.0,30.34,WNW,288,0.0,-999.0,46,-99.99,,,-99.99,,2013-02-18 09:42:00,
2013-02-18 04:52:00,25.0,7.0,30.34,WNW,288,0.0,-999.0,46,-99.99,,,-99.99,,2013-02-18 09:52:00,
2013-02-18 05:01:00,25.0,7.0,30.35,WNW,288,0.0,-999.0,46,-99.99,,,-99.99,,2013-02-18 10:01:00,
2013-02-18 05:11:00,25.0,7.0,30.35,WNW,288,0.0,-999.0,46,-99.99,,,-99.99,,2013-02-18 10:11:00,
2013-02-18 05:22:00,25.0,7.0,30.36,WNW,288,0.0,-999.0,46,-99.99,,,-99.99,,2013-02-18 10:22:00,
2013-02-18 05:32:00,25.0,8.0,30.37,WNW,288,0.0,-999.0,47,-99.99,,,-99.99,,2013-02-18 10:32:00,
2013-02-18 05:42:00,25.0,8.0,30.37,WNW,288,0.0,-999.0,47,-99.99,,,-99.99,,2013-02-18 10:42:00,
2013-02-18 05:52:00,25.0,7.0,30.37,WNW,288,0.0,-999.0,46,-99.99,,,-99.99,,2013-02-18 10:52:00,
2013-02-18 06:02:00,25.0,8.0,30.37,WNW,288,0.0,-999.0,48,-99.99,,,-99.99,,2013-02-18 11:02:00,
2013-02-18 06:11:00,25.0,8.0,30.37,WNW,288,0.0,-999.0,48,-99.99,,,-99.99,,2013-02-18 11:11:00,
2013-02-18 06:22:00,25.0,9.0,30.37,WNW,288,0.0,-999.0,49,-99.99,,,-99.99,,2013-02-18 11:22:00,
2013-02-18 06:32:00,25.0,8.0,30.38,WNW,288,0.0,-999.0,48,-99.99,,,-99.99,,2013-02-18 11:32:00,
2013-02-18 06:42:00,25.0,8.0,30.38,WNW,288,0.0,-999.0,48,-99.99,,,-99.99,,2013-02-18 11:42:00,
2013-02-18 06:52:00,25.0,8.0,30.38,WNW,288,0.0,-999.0,48,-99.99,,,-99.99,,2013-02-18 11:52:00,
2013-02-18 07:02:00,25.0,8.0,30.38,WNW,288,0.0,-999.0,47,-99.99,,,-99.99,,2013-02-18 12:02:00,
2013-02-18 07:12:00,25.0,8.0,30.38,WNW,288,0.0,-999.0,47,-99.99,,,-99.99,,2013-02-18 12:12:00,
2013-02-18 07:22:00,25.0,8.0,30.38,WNW,288,0.0,-999.0,48,-99.99,,,-99.99,,2013-02-18 12:22:00,
2013-02-18 07:32:00,25.0,8.0,30.39,WNW,288,0.0,-999.0,47,-99.99,,,-99.99,,2013-02-18 12:32:00,
2013-02-18 07:42:00,25.0,8.0,30.39,WNW,288,0.0,-999.0,47,-99.99,,,-99.99,,2013-02-18 12:42:00,
2013-02-18 07:53:00,26.0,9.0,30.39,WNW,288,0.0,-999.0,47,-99.99,,,-99.99,,2013-02-18 12:53:00,
2013-02-18 08:03:00,27.0,9.0,30.40,WNW,288,0.0,-999.0,46,-99.99,,,-99.99,,2013-02-18 13:03:00,
2013-02-18 08:12:00,27.0,9.0,30.40,WNW,288,0.0,-999.0,46,-99.99,,,-99.99,,2013-02-18 13:12:00,
2013-02-18 08:23:00,27.0,9.0,30.40,WNW,288,0.0,-999.0,46,-99.99,,,-99.99,,2013-02-18 13:23:00,
2013-02-18 08:32:00,28.0,15.0,30.40,WNW,288,0.0,-999.0,57,-99.99,,,-99.99,,2013-02-18 13:32:00,
2013-02-18 08:42:00,28.0,15.0,30.40,WNW,288,0.0,-999.0,57,-99.99,,,-99.99,,2013-02-18 13:42:00,
2013-02-18 08:53:00,28.0,16.0,30.41,WNW,288,0.0,-999.0,60,-99.99,,,-99.99,,2013-02-18 13:53:00,
2013-02-18 09:02:00,29.0,15.0,30.41,WNW,288,0.0,-999.0,55,-99.99,,,-99.99,,2013-02-18 14:02:00,
2013-02-18 09:11:00,29.0,15.0,30.41,WNW,288,0.0,-999.0,55,-99.99,,,-99.99,,2013-02-18 14:11:00,
2013-02-18 09:22:00,30.0,15.0,30.41,WNW,288,0.0,-999.0,52,-99.99,,,-99.99,,2013-02-18 14:22:00,
2013-02-18 09:33:00,32.0,14.0,30.41,WNW,288,0.0,-999.0,46,-99.99,,,-99.99,,2013-02-18 14:33:00,
2013-02-18 09:53:00,35.0,17.0,30.40,WNW,288,0.0,-999.0,48,-99.99,,,-99.99,,2013-02-18 14:53:00,
2013-02-18 10:02:00,36.0,16.0,30.40,WNW,288,0.0,-999.0,43,-99.99,,,-99.99,,2013-02-18 15:02:00,
2013-02-18 10:12:00,36.0,16.0,30.40,WNW,288,0.0,-999.0,43,-99.99,,,-99.99,,2013-02-18 15:12:00,
2013-02-18 10:22:00,38.0,15.0,30.40,West,280,0.0,-999.0,39,-99.99,,,-99.99,,2013-02-18 15:22:00,
2013-02-18 10:32:00,38.0,13.0,30.41,SW,219,1.0,-999.0,36,-99.99,,,-99.99,,2013-02-18 15:32:00,
2013-02-18 10:53:00,39.0,14.0,30.40,South,171,1.0,-999.0,35,-99.99,,,-99.99,,2013-02-18 15:53:00,
2013-02-18 11:03:00,40.0,15.0,30.40,South,187,1.0,-999.0,36,-99.99,,,-99.99,,2013-02-18 16:03:00,
2013-02-18 11:12:00,40.0,15.0,30.40,South,187,1.0,-999.0,36,-99.99,,,-99.99,,2013-02-18 16:12:00,
2013-02-18 11:22:00,41.0,15.0,30.40,South,169,2.0,-999.0,34,-99.99,,,-99.99,,2013-02-18 16:22:00,
2013-02-18 11:33:00,42.0,16.0,30.40,SSE,163,2.0,-999.0,35,-99.99,,,-99.99,,2013-02-18 16:33:00,
2013-02-18 11:42:00,42.0,16.0,30.40,SSE,163,2.0,-999.0,35,-99.99,,,-99.99,,2013-02-18 16:42:00,
2013-02-18 11:52:00,43.0,17.0,30.39,SE,139,1.0,-999.0,35,-99.99,,,-99.99,,2013-02-18 16:52:00,
2013-02-18 12:04:00,44.0,18.0,30.39,South,186,2.0,-999.0,35,-99.99,,,-99.99,,2013-02-18 17:04:00,
2013-02-18 12:12:00,44.0,18.0,30.39,South,186,2.0,-999.0,35,-99.99,,,-99.99,,2013-02-18 17:12:00,
2013-02-18 12:22:00,44.0,19.0,30.39,SSW,209,1.0,-999.0,37,-99.99,,,-99.99,,2013-02-18 17:22:00,
2013-02-18 12:32:00,46.0,19.0,30.37,SSW,194,1.0,-999.0,34,-99.99,,,-99.99,,2013-02-18 17:32:00,
2013-02-18 12:42:00,46.0,19.0,30.37,SSW,194,1.0,-999.0,34,-99.99,,,-99.99,,2013-02-18 17:42:00,
2013-02-18 12:52:00,47.0,20.0,30.36,SSE,159,0.0,-999.0,34,-99.99,,,-99.99,,2013-02-18 17:52:00,
2013-02-18 13:02:00,48.0,21.0,30.35,SSE,155,1.0,-999.0,34,-99.99,,,-99.99,,2013-02-18 18:02:00,
2013-02-18 13:12:00,48.0,21.0,30.35,SSE,155,1.0,-999.0,34,-99.99,,,-99.99,,2013-02-18 18:12:00,
2013-02-18 13:23:00,48.0,20.0,30.34,SW,233,1.0,-999.0,33,-99.99,,,-99.99,,2013-02-18 18:23:00,
2013-02-18 13:33:00,49.0,23.0,30.34,South,174,1.0,-999.0,35,-99.99,,,-99.99,,2013-02-18 18:33:00,
2013-02-18 13:42:00,49.0,23.0,30.34,South,174,1.0,-999.0,35,-99.99,,,-99.99,,2013-02-18 18:42:00,
2013-02-18 13:53:00,50.0,23.0,30.32,South,172,1.0,-999.0,35,-99.99,,,-99.99,,2013-02-18 18:53:00,
2013-02-18 14:03:00,50.0,23.0,30.32,SSW,203,1.0,-999.0,34,-99.99,,,-99.99,,2013-02-18 19:03:00,
2013-02-18 14:12:00,50.0,23.0,30.32,SSW,203,1.0,-999.0,34,-99.99,,,-99.99,,2013-02-18 19:12:00,
2013-02-18 14:22:00,51.0,24.0,30.31,SSW,202,1.0,-999.0,34,-99.99,,,-99.99,,2013-02-18 19:22:00,
2013-02-18 14:33:00,51.0,24.0,30.30,SSW,204,2.0,-999.0,35,-99.99,,,-99.99,,2013-02-18 19:33:00,
2013-02-18 14:43:00,51.0,24.0,30.30,SSW,204,2.0,-999.0,35,-99.99,,,-99.99,,2013-02-18 19:43:00,
2013-02-18 14:53:00,53.0,26.0,30.30,SSE,165,1.0,-999.0,35,-99.99,,,-99.99,,2013-02-18 19:53:00,
2013-02-18 15:02:00,52.0,25.0,30.30,WNW,283,2.0,-999.0,35,-99.99,,,-99.99,,2013-02-18 20:02:00,
2013-02-18 15:12:00,52.0,25.0,30.30,WNW,283,2.0,-999.0,35,-99.99,,,-99.99,,2013-02-18 20:12:00,
2013-02-18 15:23:00,52.0,25.0,30.30,WNW,283,2.0,-999.0,35,-99.99,,,-99.99,,2013-02-18 20:23:00,
2013-02-18 15:33:00,51.0,24.0,30.29,SW,216,1.0,-999.0,35,-99.99,,,-99.99,,2013-02-18 20:33:00,
2013-02-18 15:42:00,51.0,24.0,30.29,SW,216,1.0,-999.0,35,-99.99,,,-99.99,,2013-02-18 20:42:00,
2013-02-18 15:53:00,52.0,26.0,30.28,South,174,1.0,-999.0,36,-99.99,,,-99.99,,2013-02-18 20:53:00,
2013-02-18 16:03:00,51.0,26.0,30.27,South,177,2.0,-999.0,37,-99.99,,,-99.99,,2013-02-18 21:03:00,
2013-02-18 16:12:00,51.0,26.0,30.27,South,177,2.0,-999.0,37,-99.99,,,-99.99,,2013-02-18 21:12:00,
2013-02-18 16:22:00,51.0,25.0,30.28,South,169,1.0,-999.0,36,-99.99,,,-99.99,,2013-02-18 21:22:00,
2013-02-18 16:33:00,50.0,27.0,30.28,South,180,1.0,-999.0,40,-99.99,,,-99.99,,2013-02-18 21:33:00,
2013-02-18 16:42:00,50.0,27.0,30.28,South,180,1.0,-999.0,40,-99.99,,,-99.99,,2013-02-18 21:42:00,
2013-02-18 16:53:00,50.0,26.0,30.28,SSE,162,2.0,-999.0,39,-99.99,,,-99.99,,2013-02-18 21:53:00,
2013-02-18 17:03:00,49.0,26.0,30.28,South,176,1.0,-999.0,40,-99.99,,,-99.99,,2013-02-18 22:03:00,
2013-02-18 17:12:00,49.0,27.0,30.28,SSE,163,2.0,-999.0,42,-99.99,,,-99.99,,2013-02-18 22:12:00,
2013-02-18 17:23:00,49.0,27.0,30.28,SSE,163,2.0,-999.0,42,-99.99,,,-99.99,,2013-02-18 22:23:00,
2013-02-18 17:33:00,49.0,27.0,30.28,South,169,1.0,-999.0,42,-99.99,,,-99.99,,2013-02-18 22:33:00,
2013-02-18 17:43:00,49.0,27.0,30.28,South,169,1.0,-999.0,42,-99.99,,,-99.99,,2013-02-18 22:43:00,
2013-02-18 17:54:00,48.0,26.0,30.28,South,176,1.0,-999.0,42,-99.99,,,-99.99,,2013-02-18 22:54:00,
2013-02-18 18:02:00,47.0,26.0,30.28,SSW,209,1.0,-999.0,43,-99.99,,,-99.99,,2013-02-18 23:02:00,
2013-02-18 18:12:00,47.0,26.0,30.28,SSW,209,1.0,-999.0,43,-99.99,,,-99.99,,2013-02-18 23:12:00,
2013-02-18 18:23:00,46.0,25.0,30.27,South,181,1.0,-999.0,44,-99.99,,,-99.99,,2013-02-18 23:23:00,
2013-02-18 18:33:00,45.0,25.0,30.28,SSW,196,0.0,-999.0,46,-99.99,,,-99.99,,2013-02-18 23:33:00,
2013-02-18 18:43:00,45.0,25.0,30.28,SSW,196,0.0,-999.0,46,-99.99,,,-99.99,,2013-02-18 23:43:00,
2013-02-18 18:53:00,44.0,26.0,30.28,SSW,196,0.0,-999.0,48,-99.99,,,-99.99,,2013-02-18 23:53:00,
2013-02-18 19:03:00,43.0,26.0,30.28,SW,220,0.0,-999.0,50,-99.99,,,-99.99,,2013-02-19 00:03:00,
2013-02-18 19:12:00,43.0,26.0,30.28,SW,220,0.0,-999.0,50,-99.99,,,-99.99,,2013-02-19 00:12:00,
2013-02-18 19:22:00,42.0,26.0,30.28,SW,214,0.0,-999.0,52,-99.99,,,-99.99,,2013-02-19 00:22:00,
2013-02-18 19:34:00,42.0,26.0,30.27,South,184,0.0,-999.0,52,-99.99,,,-99.99,,2013-02-19 00:34:00,
2013-02-18 19:43:00,42.0,26.0,30.27,South,184,0.0,-999.0,52,-99.99,,,-99.99,,2013-02-19 00:43:00,
2013-02-18 19:55:00,41.0,25.0,30.27,South,184,0.0,-999.0,53,-99.99,,,-99.99,,2013-02-19 00:55:00,
2013-02-18 20:03:00,40.0,24.0,30.27,South,184,0.0,-999.0,53,-99.99,,,-99.99,,2013-02-19 01:03:00,
2013-02-18 20:14:00,40.0,24.0,30.27,South,184,0.0,-999.0,53,-99.99,,,-99.99,,2013-02-19 01:14:00,
2013-02-18 20:24:00,40.0,24.0,30.27,South,184,0.0,-999.0,53,-99.99,,,-99.99,,2013-02-19 01:24:00,
2013-02-18 20:34:00,40.0,25.0,30.26,South,183,0.0,-999.0,54,-99.99,,,-99.99,,2013-02-19 01:34:00,
2013-02-18 20:44:00,40.0,25.0,30.26,South,183,0.0,-999.0,54,-99.99,,,-99.99,,2013-02-19 01:44:00,
2013-02-18 20:56:00,40.0,25.0,30.26,South,178,0.0,-999.0,54,-99.99,,,-99.99,,2013-02-19 01:56:00,
2013-02-18 21:03:00,39.0,25.0,30.25,South,178,0.0,-999.0,56,-99.99,,,-99.99,,2013-02-19 02:03:00,
2013-02-18 21:14:00,39.0,25.0,30.25,South,178,0.0,-999.0,56,-99.99,,,-99.99,,2013-02-19 02:14:00,
2013-02-18 21:23:00,39.0,25.0,30.25,South,178,0.0,-999.0,56,-99.99,,,-99.99,,2013-02-19 02:23:00,
2013-02-18 21:34:00,40.0,25.0,30.25,SSW,205,0.0,-999.0,55,-99.99,,,-99.99,,2013-02-19 02:34:00,
2013-02-18 21:43:00,40.0,25.0,30.25,SSW,205,0.0,-999.0,55,-99.99,,,-99.99,,2013-02-19 02:43:00,
2013-02-18 21:55:00,40.0,26.0,30.24,SSW,194,0.0,-999.0,56,-99.99,,,-99.99,,2013-02-19 02:55:00,
2013-02-18 22:06:00,40.0,25.0,30.24,SSW,194,0.0,-999.0,55,-99.99,,,-99.99,,2013-02-19 03:06:00,
2013-02-18 22:15:00,40.0,25.0,30.24,SSW,194,0.0,-999.0,55,-99.99,,,-99.99,,2013-02-19 03:15:00,
2013-02-18 22:24:00,39.0,25.0,30.25,SSW,194,0.0,-999.0,57,-99.99,,,-99.99,,2013-02-19 03:24:00,
2013-02-18 22:34:00,39.0,25.0,30.24,SW,223,0.0,-999.0,58,-99.99,,,-99.99,,2013-02-19 03:34:00,
2013-02-18 22:44:00,39.0,25.0,30.24,SW,223,0.0,-999.0,58,-99.99,,,-99.99,,2013-02-19 03:44:00,
2013-02-18 22:55:00,39.0,25.0,30.24,SW,223,0.0,-999.0,58,-99.99,,,-99.99,,2013-02-19 03:55:00,
2013-02-18 23:02:00,38.0,25.0,30.22,SW,223,0.0,-999.0,58,-99.99,,,-99.99,,2013-02-19 04:02:00,
2013-02-18 23:14:00,38.0,25.0,30.22,SW,223,0.0,-999.0,58,-99.99,,,-99.99,,2013-02-19 04:14:00,
2013-02-18 23:23:00,38.0,25.0,30.22,SW,223,0.0,-999.0,60,-99.99,,,-99.99,,2013-02-19 04:23:00,
2013-02-18 23:33:00,38.0,25.0,30.21,SSW,212,0.0,-999.0,60,-99.99,,,-99.99,,2013-02-19 04:33:00,
2013-02-18 23:44:00,38.0,25.0,30.21,SSW,212,0.0,-999.0,60,-99.99,,,-99.99,,2013-02-19 04:44:00,
2013-02-18 23:55:00,39.0,26.0,30.21,SSE,167,0.0,-999.0,59,-99.99,,,-99.99,,2013-02-19 04:55:00,